Flight Track Log - Related Links

Times and Time Zones

All times are in EDT time to prevent confusion due to time zone crossing. See the LYM752 flight status page for this flight to view local times or setup timezone preferences in your user account.

Time Position Orientation Groundspeed Altitude Reporting Facility
EDT Latitude Longitude Course Direction KTS MPH feet Rate Location/Type
Wed 08:55:56 AM 39.9500 -104.7167 320° Northwest 184 212 8,300  Level Denver TRACON
Wed 08:56:56 AM 40.0000 -104.7500 333° Northwest 195 224 9,900 850 Climbing Denver TRACON
Wed 08:57:56 AM 40.0667 -104.7833 339° North 256 295 10,000 1,000 Climbing Denver TRACON
Wed 08:58:56 AM 40.1167 -104.8000 346° North 231 266 11,900 1,374 Climbing Denver TRACON
Wed 09:00:07 AM 40.1958 -104.8342 342° North 243 280 13,000 1,545 Climbing Denver Center
Wed 09:01:00 AM 40.2360 -105.0899 320° Northwest  Level Estimated
Wed 09:01:08 AM 40.2567 -104.8492 349° North 198 228 15,300  Level Denver Center
Wed 09:02:09 AM 40.3072 -104.8642 347° North 185 213 16,700 1,180 Climbing Denver Center
Wed 09:03:10 AM 40.3608 -104.8761 350° North 194 223 17,700 934 Climbing Denver Center
Wed 09:04:11 AM 40.4128 -104.8972 343° North 196 226 18,600 885 Climbing Denver Center
Wed 09:05:12 AM 40.4653 -104.9239 339° North 189 217 19,500 683 Climbing Denver Center
Wed 09:06:14 AM 40.5153 -104.9522 337° Northwest 195 224 20,000 195 Climbing Denver Center
Wed 09:07:15 AM 40.5761 -104.9861 337° Northwest 228 262 19,900  Descending Denver Center
Wed 09:08:16 AM 40.6361 -105.0250 334° Northwest 246 283 20,000 98 Climbing Denver Center
Wed 09:09:17 AM 40.7022 -105.0672 334° Northwest 260 299 20,100  Climbing Denver Center
Wed 09:10:18 AM 40.7675 -105.1106 333° Northwest 258 297 20,000  Descending Denver Center
Wed 09:11:19 AM 40.8331 -105.1617 329° Northwest 269 310 20,100 49 Climbing Denver Center
Wed 09:12:20 AM 40.9000 -105.2094 332° Northwest 270 311 20,100 -49 Level Denver Center
Wed 09:13:21 AM 40.9714 -105.2553 334° Northwest 279 321 20,000 -49 Descending Denver Center
Wed 09:14:22 AM 41.0431 -105.3025 334° Northwest 283 326 20,000  Level Denver Center
Wed 09:15:23 AM 41.1181 -105.3589 330° Northwest 280 322 20,000  Level Denver Center
Wed 09:16:24 AM 41.1831 -105.4056 332° Northwest 279 321 20,000  Level Denver Center
Wed 09:17:24 AM 41.2450 -105.4556 329° Northwest 273 314 20,000  Level Denver Center
Wed 09:18:25 AM 41.3131 -105.5192 325° Northwest 268 308 20,000  Level Denver Center
Wed 09:19:26 AM 41.3717 -105.5764 324° Northwest 270 311 20,000 -49 Level Denver Center
Wed 09:20:27 AM 41.4308 -105.6344 324° Northwest 274 315 19,900 49 Descending Denver Center
Wed 09:21:28 AM 41.4986 -105.7061 322° Northwest 278 320 20,100 49 Climbing Denver Center
Wed 09:22:29 AM 41.5631 -105.7600 328° Northwest 284 327 20,000 -49 Descending Denver Center
Wed 09:23:30 AM 41.6292 -105.8181 327° Northwest 294 338 20,000 -49 Level Denver Center
Wed 09:24:31 AM 41.7083 -105.8864 327° Northwest 300 345 19,900 49 Descending Denver Center
Wed 09:25:32 AM 41.7756 -105.9442 327° Northwest 300 345 20,100 98 Climbing Denver Center
Wed 09:26:33 AM 41.8411 -106.0008 327° Northwest 296 341 20,100 -49 Level Denver Center
Wed 09:27:34 AM 41.8931 -106.0967 306° West 286 329 20,000  Descending Denver Center
Wed 09:28:35 AM 41.9333 -106.1786 303° West 278 320 20,100 49 Climbing Denver Center
Wed 09:29:36 AM 41.9783 -106.2603 307° West 282 325 20,100  Level Denver Center
Wed 09:30:37 AM 42.0303 -106.3528 307° West 279 321 20,100  Level Denver Center
Wed 09:31:38 AM 42.0714 -106.4336 304° West 277 319 20,100 -49 Level Denver Center
Wed 09:32:39 AM 42.1217 -106.5250 307° West 279 321 20,000 -49 Descending Denver Center
Wed 09:33:40 AM 42.1617 -106.6047 304° West 272 313 20,000  Level Denver Center
Wed 09:34:41 AM 42.2033 -106.6828 306° West 269 310 20,000 -49 Level Denver Center
Wed 09:35:42 AM 42.2492 -106.7761 304° West 269 310 19,900 49 Descending Denver Center
Wed 09:36:43 AM 42.2922 -106.8536 307° West 269 310 20,100 49 Climbing Denver Center
Wed 09:37:44 AM 42.3447 -106.9431 308° West 273 314 20,000 -49 Descending Denver Center
Wed 09:38:45 AM 42.3872 -107.0233 306° West 274 315 20,000  Level Denver Center
Wed 09:39:46 AM 42.4247 -107.1089 301° West 277 319 20,000 -49 Level Denver Center
Wed 09:40:47 AM 42.4669 -107.2106 299° West 277 319 19,900  Descending Denver Center
Wed 09:41:48 AM 42.5028 -107.2986 299° West 279 321 20,000 -384 Climbing Denver Center
Wed 09:42:52 AM 42.5481 -107.4047 300° West 291 335 19,100 -912 Descending Salt Lake Center
Wed 09:43:53 AM 42.5969 -107.4939 307° West 304 350 18,100 -738 Descending Salt Lake Center
Wed 09:44:54 AM 42.6506 -107.5822 310° West 315 362 17,600 -829 Descending Salt Lake Center
Wed 09:45:56 AM 42.7117 -107.6789 311° West 308 354 16,400 -1,122 Descending Salt Lake Center
Wed 09:46:57 AM 42.7614 -107.7597 310° West 294 338 15,300 -1,525 Descending Salt Lake Center
Wed 09:47:58 AM 42.8200 -107.8533 311° West 292 336 13,300 -1,574 Descending Salt Lake Center
Wed 09:48:59 AM 42.8703 -107.9350 310° West 293 337 12,100 -1,024 Descending Salt Lake Center
Wed 09:50:01 AM 42.9194 -108.0181 309° West 295 339 11,200 -585 Descending Salt Lake Center
Wed 09:51:02 AM 42.9469 -108.1114 292° West 255 293 10,900 -738 Descending Salt Lake Center
Wed 09:52:03 AM 42.9692 -108.1756 295° West 221 254 9,700 -1,033 Descending Salt Lake Center
Wed 09:53:04 AM 42.9908 -108.2467 293° West 201 231 8,800 -634 Descending Salt Lake Center
Wed 09:54:06 AM 43.0097 -108.3097 292° West 194 223 8,400 -387 Descending Salt Lake Center
Wed 09:56:00 AM 43.0500 -108.4500 304° West  Level FlightAware Approximate
Wed 10:03:00 AM 43.0643 -108.4598 304° West  Level Estimated

Login

Don't have an account? Register now (free) for customized features, flight alerts, and more!